sensor_id;sensor_type;location;lat;lon;timestamp;temperature;humidity
6581;DHT22;3324;50.796;7.228;2022-08-24T00:00:11;21.60;99.90
6581;DHT22;3324;50.796;7.228;2022-08-24T00:02:37;21.60;99.90
6581;DHT22;3324;50.796;7.228;2022-08-24T00:05:04;21.50;99.90
6581;DHT22;3324;50.796;7.228;2022-08-24T00:07:30;21.50;99.90
6581;DHT22;3324;50.796;7.228;2022-08-24T00:09:56;21.50;99.90
6581;DHT22;3324;50.796;7.228;2022-08-24T00:12:22;21.50;99.90
6581;DHT22;3324;50.796;7.228;2022-08-24T00:14:49;21.40;99.90
6581;DHT22;3324;50.796;7.228;2022-08-24T00:17:14;21.30;99.90
6581;DHT22;3324;50.796;7.228;2022-08-24T00:19:41;21.30;99.90
6581;DHT22;3324;50.796;7.228;2022-08-24T00:22:07;21.30;99.90
6581;DHT22;3324;50.796;7.228;2022-08-24T00:24:33;21.20;99.90
6581;DHT22;3324;50.796;7.228;2022-08-24T00:26:59;21.20;99.90
6581;DHT22;3324;50.796;7.228;2022-08-24T00:29:24;21.30;99.90
6581;DHT22;3324;50.796;7.228;2022-08-24T00:31:50;21.20;99.90
6581;DHT22;3324;50.796;7.228;2022-08-24T00:34:16;21.20;99.90
6581;DHT22;3324;50.796;7.228;2022-08-24T00:36:42;21.10;99.90
6581;DHT22;3324;50.796;7.228;2022-08-24T00:39:09;21.10;99.90
6581;DHT22;3324;50.796;7.228;2022-08-24T00:41:40;21.00;99.90
6581;DHT22;3324;50.796;7.228;2022-08-24T00:44:06;21.00;99.90
6581;DHT22;3324;50.796;7.228;2022-08-24T00:46:52;21.00;99.90
6581;DHT22;3324;50.796;7.228;2022-08-24T00:52:37;20.90;99.90
6581;DHT22;3324;50.796;7.228;2022-08-24T00:55:11;20.80;99.90
6581;DHT22;3324;50.796;7.228;2022-08-24T00:57:41;20.90;99.90
6581;DHT22;3324;50.796;7.228;2022-08-24T01:00:17;20.80;99.90
6581;DHT22;3324;50.796;7.228;2022-08-24T01:02:51;20.80;99.90
6581;DHT22;3324;50.796;7.228;2022-08-24T01:05:17;20.70;99.90
6581;DHT22;3324;50.796;7.228;2022-08-24T01:07:44;20.70;99.90
6581;DHT22;3324;50.796;7.228;2022-08-24T01:10:15;20.70;99.90
6581;DHT22;3324;50.796;7.228;2022-08-24T01:12:44;20.60;99.90
6581;DHT22;3324;50.796;7.228;2022-08-24T01:15:11;20.60;99.90
6581;DHT22;3324;50.796;7.228;2022-08-24T01:17:37;20.50;99.90
6581;DHT22;3324;50.796;7.228;2022-08-24T01:20:22;20.40;99.90
6581;DHT22;3324;50.796;7.228;2022-08-24T01:23:10;20.40;99.90
6581;DHT22;3324;50.796;7.228;2022-08-24T01:25:38;20.30;99.90
6581;DHT22;3324;50.796;7.228;2022-08-24T01:28:12;20.20;99.90
6581;DHT22;3324;50.796;7.228;2022-08-24T01:30:41;20.20;99.90
6581;DHT22;3324;50.796;7.228;2022-08-24T01:33:08;20.20;99.90
6581;DHT22;3324;50.796;7.228;2022-08-24T01:35:37;20.10;99.90
6581;DHT22;3324;50.796;7.228;2022-08-24T01:38:06;20.10;99.90
6581;DHT22;3324;50.796;7.228;2022-08-24T01:40:35;20.10;99.90
6581;DHT22;3324;50.796;7.228;2022-08-24T01:43:03;20.10;99.90
6581;DHT22;3324;50.796;7.228;2022-08-24T01:45:29;20.10;99.90
6581;DHT22;3324;50.796;7.228;2022-08-24T01:47:55;20.00;99.90
6581;DHT22;3324;50.796;7.228;2022-08-24T01:50:23;20.10;99.90
6581;DHT22;3324;50.796;7.228;2022-08-24T01:52:49;20.10;99.90
6581;DHT22;3324;50.796;7.228;2022-08-24T01:55:15;20.10;99.90
6581;DHT22;3324;50.796;7.228;2022-08-24T01:57:41;20.10;99.90
6581;DHT22;3324;50.796;7.228;2022-08-24T02:00:09;20.10;99.90
6581;DHT22;3324;50.796;7.228;2022-08-24T02:02:35;20.10;99.90
6581;DHT22;3324;50.796;7.228;2022-08-24T02:05:01;20.00;99.90
6581;DHT22;3324;50.796;7.228;2022-08-24T02:07:27;20.00;99.90
6581;DHT22;3324;50.796;7.228;2022-08-24T02:09:54;20.00;99.90
6581;DHT22;3324;50.796;7.228;2022-08-24T02:12:20;20.00;99.90
6581;DHT22;3324;50.796;7.228;2022-08-24T02:14:46;20.00;99.90
6581;DHT22;3324;50.796;7.228;2022-08-24T02:17:12;19.90;99.90
6581;DHT22;3324;50.796;7.228;2022-08-24T02:19:37;19.90;99.90
6581;DHT22;3324;50.796;7.228;2022-08-24T02:22:04;19.90;99.90
6581;DHT22;3324;50.796;7.228;2022-08-24T02:24:30;19.90;99.90
6581;DHT22;3324;50.796;7.228;2022-08-24T02:26:56;19.90;99.90
6581;DHT22;3324;50.796;7.228;2022-08-24T02:29:22;19.80;99.90
6581;DHT22;3324;50.796;7.228;2022-08-24T02:31:48;19.80;99.90
6581;DHT22;3324;50.796;7.228;2022-08-24T02:34:14;19.80;99.90
6581;DHT22;3324;50.796;7.228;2022-08-24T02:36:40;19.70;99.90
6581;DHT22;3324;50.796;7.228;2022-08-24T02:39:07;19.70;99.90
6581;DHT22;3324;50.796;7.228;2022-08-24T02:41:34;19.60;99.90
6581;DHT22;3324;50.796;7.228;2022-08-24T02:44:00;19.50;99.90
6581;DHT22;3324;50.796;7.228;2022-08-24T02:46:28;19.50;99.90
6581;DHT22;3324;50.796;7.228;2022-08-24T02:48:55;19.40;99.90
6581;DHT22;3324;50.796;7.228;2022-08-24T02:51:26;19.30;99.90
6581;DHT22;3324;50.796;7.228;2022-08-24T02:53:52;19.40;99.90
6581;DHT22;3324;50.796;7.228;2022-08-24T02:56:18;19.30;99.90
6581;DHT22;3324;50.796;7.228;2022-08-24T02:58:46;19.40;99.90
6581;DHT22;3324;50.796;7.228;2022-08-24T03:01:12;19.30;99.90
6581;DHT22;3324;50.796;7.228;2022-08-24T03:03:38;19.30;99.90
6581;DHT22;3324;50.796;7.228;2022-08-24T03:06:05;19.30;99.90
6581;DHT22;3324;50.796;7.228;2022-08-24T03:08:31;19.30;99.90
6581;DHT22;3324;50.796;7.228;2022-08-24T03:10:56;19.30;99.90
6581;DHT22;3324;50.796;7.228;2022-08-24T03:13:25;19.30;99.90
6581;DHT22;3324;50.796;7.228;2022-08-24T03:15:52;19.20;99.90
6581;DHT22;3324;50.796;7.228;2022-08-24T03:18:18;19.10;99.90
6581;DHT22;3324;50.796;7.228;2022-08-24T03:20:44;19.10;99.90
6581;DHT22;3324;50.796;7.228;2022-08-24T03:23:09;19.00;99.90
6581;DHT22;3324;50.796;7.228;2022-08-24T03:25:35;18.90;99.90
6581;DHT22;3324;50.796;7.228;2022-08-24T03:28:00;18.80;99.90
6581;DHT22;3324;50.796;7.228;2022-08-24T03:30:27;18.90;99.90
6581;DHT22;3324;50.796;7.228;2022-08-24T03:32:52;18.80;99.90
6581;DHT22;3324;50.796;7.228;2022-08-24T03:35:19;18.80;99.90
6581;DHT22;3324;50.796;7.228;2022-08-24T03:37:46;18.80;99.90
6581;DHT22;3324;50.796;7.228;2022-08-24T03:40:12;18.80;99.90
6581;DHT22;3324;50.796;7.228;2022-08-24T03:42:38;18.80;99.90
6581;DHT22;3324;50.796;7.228;2022-08-24T03:45:04;18.80;99.90
6581;DHT22;3324;50.796;7.228;2022-08-24T03:47:30;18.70;99.90
6581;DHT22;3324;50.796;7.228;2022-08-24T03:49:56;18.70;99.90
6581;DHT22;3324;50.796;7.228;2022-08-24T03:52:21;18.60;99.90
6581;DHT22;3324;50.796;7.228;2022-08-24T03:54:47;18.70;99.90
6581;DHT22;3324;50.796;7.228;2022-08-24T03:57:13;18.60;99.90
6581;DHT22;3324;50.796;7.228;2022-08-24T03:59:39;18.60;99.90
6581;DHT22;3324;50.796;7.228;2022-08-24T04:02:05;18.60;99.90
6581;DHT22;3324;50.796;7.228;2022-08-24T04:04:30;18.60;99.90
6581;DHT22;3324;50.796;7.228;2022-08-24T04:06:57;18.60;99.90
6581;DHT22;3324;50.796;7.228;2022-08-24T04:09:23;18.60;99.90
6581;DHT22;3324;50.796;7.228;2022-08-24T04:11:49;18.60;99.90
6581;DHT22;3324;50.796;7.228;2022-08-24T04:14:16;18.50;99.90
6581;DHT22;3324;50.796;7.228;2022-08-24T04:16:42;18.50;99.90
6581;DHT22;3324;50.796;7.228;2022-08-24T04:19:10;18.50;99.90
6581;DHT22;3324;50.796;7.228;2022-08-24T04:21:36;18.40;99.90
6581;DHT22;3324;50.796;7.228;2022-08-24T04:24:03;18.40;99.90
6581;DHT22;3324;50.796;7.228;2022-08-24T04:26:30;18.30;99.90
6581;DHT22;3324;50.796;7.228;2022-08-24T04:28:56;18.30;99.90
6581;DHT22;3324;50.796;7.228;2022-08-24T04:31:23;18.30;99.90
6581;DHT22;3324;50.796;7.228;2022-08-24T04:33:49;18.30;99.90
6581;DHT22;3324;50.796;7.228;2022-08-24T04:36:17;18.30;99.90
6581;DHT22;3324;50.796;7.228;2022-08-24T04:38:43;18.20;99.90
6581;DHT22;3324;50.796;7.228;2022-08-24T04:41:10;18.30;99.90
6581;DHT22;3324;50.796;7.228;2022-08-24T04:43:37;18.20;99.90
6581;DHT22;3324;50.796;7.228;2022-08-24T04:46:05;18.20;99.90
6581;DHT22;3324;50.796;7.228;2022-08-24T04:48:31;18.20;99.90
6581;DHT22;3324;50.796;7.228;2022-08-24T04:51:02;18.10;99.90
6581;DHT22;3324;50.796;7.228;2022-08-24T04:53:27;18.10;99.90
6581;DHT22;3324;50.796;7.228;2022-08-24T04:55:53;18.10;99.90
6581;DHT22;3324;50.796;7.228;2022-08-24T04:58:19;18.10;99.90
6581;DHT22;3324;50.796;7.228;2022-08-24T05:00:45;18.10;99.90
6581;DHT22;3324;50.796;7.228;2022-08-24T05:03:11;18.10;99.90
6581;DHT22;3324;50.796;7.228;2022-08-24T05:05:45;18.20;99.90
6581;DHT22;3324;50.796;7.228;2022-08-24T05:08:12;18.10;99.90
6581;DHT22;3324;50.796;7.228;2022-08-24T05:10:39;18.20;99.90
6581;DHT22;3324;50.796;7.228;2022-08-24T05:13:05;18.20;99.90
6581;DHT22;3324;50.796;7.228;2022-08-24T05:15:32;18.30;99.90
6581;DHT22;3324;50.796;7.228;2022-08-24T05:17:58;18.20;99.90
6581;DHT22;3324;50.796;7.228;2022-08-24T05:20:25;18.30;99.90
6581;DHT22;3324;50.796;7.228;2022-08-24T05:22:54;18.40;99.90
6581;DHT22;3324;50.796;7.228;2022-08-24T05:25:20;18.40;99.90
6581;DHT22;3324;50.796;7.228;2022-08-24T05:27:46;18.40;99.90
6581;DHT22;3324;50.796;7.228;2022-08-24T05:30:12;18.50;99.90
6581;DHT22;3324;50.796;7.228;2022-08-24T05:32:38;18.50;99.90
6581;DHT22;3324;50.796;7.228;2022-08-24T05:35:05;18.50;99.90
6581;DHT22;3324;50.796;7.228;2022-08-24T05:37:34;18.60;99.90
6581;DHT22;3324;50.796;7.228;2022-08-24T05:40:05;18.70;99.90
6581;DHT22;3324;50.796;7.228;2022-08-24T05:42:31;18.80;99.90
6581;DHT22;3324;50.796;7.228;2022-08-24T05:44:56;18.90;99.90
6581;DHT22;3324;50.796;7.228;2022-08-24T05:47:22;18.90;99.90
6581;DHT22;3324;50.796;7.228;2022-08-24T05:49:48;19.00;99.90
6581;DHT22;3324;50.796;7.228;2022-08-24T05:52:17;19.10;99.90
6581;DHT22;3324;50.796;7.228;2022-08-24T05:54:43;19.10;99.90
6581;DHT22;3324;50.796;7.228;2022-08-24T05:57:08;19.20;99.90
6581;DHT22;3324;50.796;7.228;2022-08-24T05:59:34;19.30;99.90
6581;DHT22;3324;50.796;7.228;2022-08-24T06:02:00;19.30;99.90
6581;DHT22;3324;50.796;7.228;2022-08-24T06:04:25;19.40;99.90
6581;DHT22;3324;50.796;7.228;2022-08-24T06:06:52;19.50;99.90
6581;DHT22;3324;50.796;7.228;2022-08-24T06:09:18;19.60;99.90
6581;DHT22;3324;50.796;7.228;2022-08-24T06:11:44;19.70;99.90
6581;DHT22;3324;50.796;7.228;2022-08-24T06:14:15;19.70;99.90
6581;DHT22;3324;50.796;7.228;2022-08-24T06:16:43;19.80;99.90
6581;DHT22;3324;50.796;7.228;2022-08-24T06:19:11;19.90;99.90
6581;DHT22;3324;50.796;7.228;2022-08-24T06:21:38;19.90;99.90
6581;DHT22;3324;50.796;7.228;2022-08-24T06:24:05;20.00;99.90
6581;DHT22;3324;50.796;7.228;2022-08-24T06:26:31;20.10;99.90
6581;DHT22;3324;50.796;7.228;2022-08-24T06:29:16;20.20;99.90
6581;DHT22;3324;50.796;7.228;2022-08-24T06:31:44;20.20;99.90
6581;DHT22;3324;50.796;7.228;2022-08-24T06:34:11;20.30;99.90
6581;DHT22;3324;50.796;7.228;2022-08-24T06:36:38;20.40;99.90
6581;DHT22;3324;50.796;7.228;2022-08-24T06:39:04;20.50;99.90
6581;DHT22;3324;50.796;7.228;2022-08-24T06:41:30;20.50;99.90
6581;DHT22;3324;50.796;7.228;2022-08-24T06:43:56;20.60;99.90
6581;DHT22;3324;50.796;7.228;2022-08-24T06:46:21;20.70;99.90
6581;DHT22;3324;50.796;7.228;2022-08-24T06:48:47;20.80;99.90
6581;DHT22;3324;50.796;7.228;2022-08-24T06:51:16;20.90;99.90
6581;DHT22;3324;50.796;7.228;2022-08-24T06:53:43;21.00;99.90
6581;DHT22;3324;50.796;7.228;2022-08-24T06:56:08;21.20;99.90
6581;DHT22;3324;50.796;7.228;2022-08-24T06:58:35;21.30;99.90
6581;DHT22;3324;50.796;7.228;2022-08-24T07:01:22;21.40;99.90
6581;DHT22;3324;50.796;7.228;2022-08-24T07:03:48;21.50;99.90
6581;DHT22;3324;50.796;7.228;2022-08-24T07:06:13;21.60;99.90
6581;DHT22;3324;50.796;7.228;2022-08-24T07:08:41;21.70;99.90
6581;DHT22;3324;50.796;7.228;2022-08-24T07:11:08;21.80;99.90
6581;DHT22;3324;50.796;7.228;2022-08-24T07:13:34;21.90;99.90
6581;DHT22;3324;50.796;7.228;2022-08-24T07:16:00;22.00;99.90
6581;DHT22;3324;50.796;7.228;2022-08-24T07:18:26;22.20;99.90
6581;DHT22;3324;50.796;7.228;2022-08-24T07:20:52;22.30;99.90
6581;DHT22;3324;50.796;7.228;2022-08-24T07:23:18;22.40;99.90
6581;DHT22;3324;50.796;7.228;2022-08-24T07:25:45;22.50;99.90
6581;DHT22;3324;50.796;7.228;2022-08-24T07:28:11;22.60;99.90
6581;DHT22;3324;50.796;7.228;2022-08-24T07:30:38;22.70;99.90
6581;DHT22;3324;50.796;7.228;2022-08-24T07:33:04;22.90;99.90
6581;DHT22;3324;50.796;7.228;2022-08-24T07:35:31;23.00;99.90
6581;DHT22;3324;50.796;7.228;2022-08-24T07:37:57;23.10;99.90
6581;DHT22;3324;50.796;7.228;2022-08-24T07:40:25;23.20;99.90
6581;DHT22;3324;50.796;7.228;2022-08-24T07:42:52;23.40;99.90
6581;DHT22;3324;50.796;7.228;2022-08-24T07:45:20;23.50;99.90
6581;DHT22;3324;50.796;7.228;2022-08-24T07:47:47;23.50;99.90
6581;DHT22;3324;50.796;7.228;2022-08-24T07:50:13;23.60;99.90
6581;DHT22;3324;50.796;7.228;2022-08-24T07:52:38;23.70;99.90
6581;DHT22;3324;50.796;7.228;2022-08-24T07:55:05;23.80;99.90
6581;DHT22;3324;50.796;7.228;2022-08-24T07:57:31;24.00;99.90
6581;DHT22;3324;50.796;7.228;2022-08-24T08:00:00;24.10;99.90
6581;DHT22;3324;50.796;7.228;2022-08-24T08:02:26;24.20;99.90
6581;DHT22;3324;50.796;7.228;2022-08-24T08:04:55;24.40;99.90
6581;DHT22;3324;50.796;7.228;2022-08-24T08:07:21;24.50;99.90
6581;DHT22;3324;50.796;7.228;2022-08-24T08:09:47;24.60;99.90
6581;DHT22;3324;50.796;7.228;2022-08-24T08:12:14;24.70;99.90
6581;DHT22;3324;50.796;7.228;2022-08-24T08:14:39;24.80;99.90
6581;DHT22;3324;50.796;7.228;2022-08-24T08:17:05;24.90;99.90
6581;DHT22;3324;50.796;7.228;2022-08-24T08:19:32;25.00;99.90
6581;DHT22;3324;50.796;7.228;2022-08-24T08:21:57;25.10;99.90
6581;DHT22;3324;50.796;7.228;2022-08-24T08:24:42;25.20;99.90
6581;DHT22;3324;50.796;7.228;2022-08-24T08:27:09;25.30;99.90
6581;DHT22;3324;50.796;7.228;2022-08-24T08:29:36;25.40;99.90
6581;DHT22;3324;50.796;7.228;2022-08-24T08:32:06;25.50;99.90
6581;DHT22;3324;50.796;7.228;2022-08-24T08:34:33;25.70;99.90
6581;DHT22;3324;50.796;7.228;2022-08-24T08:36:59;25.80;99.90
6581;DHT22;3324;50.796;7.228;2022-08-24T08:39:25;26.00;99.90
6581;DHT22;3324;50.796;7.228;2022-08-24T09:03:50;27.00;98.20
6581;DHT22;3324;50.796;7.228;2022-08-24T09:09:35;27.30;97.70
6581;DHT22;3324;50.796;7.228;2022-08-24T09:45:03;28.70;91.50
6581;DHT22;3324;50.796;7.228;2022-08-24T10:07:57;29.80;85.90
6581;DHT22;3324;50.796;7.228;2022-08-24T10:13:30;30.20;85.30
6581;DHT22;3324;50.796;7.228;2022-08-24T10:19:10;30.60;83.50
6581;DHT22;3324;50.796;7.228;2022-08-24T10:27:45;31.00;79.30
6581;DHT22;3324;50.796;7.228;2022-08-24T10:30:36;31.10;80.10
6581;DHT22;3324;50.796;7.228;2022-08-24T10:36:14;31.30;78.20
6581;DHT22;3324;50.796;7.228;2022-08-24T10:38:53;31.50;77.60
6581;DHT22;3324;50.796;7.228;2022-08-24T10:44:58;31.70;74.60
6581;DHT22;3324;50.796;7.228;2022-08-24T10:47:28;31.90;76.90
6581;DHT22;3324;50.796;7.228;2022-08-24T10:55:24;32.40;74.00
6581;DHT22;3324;50.796;7.228;2022-08-24T11:00:26;32.60;71.90
6581;DHT22;3324;50.796;7.228;2022-08-24T11:03:09;32.70;71.10
6581;DHT22;3324;50.796;7.228;2022-08-24T11:05:46;32.80;69.00
6581;DHT22;3324;50.796;7.228;2022-08-24T11:08:21;32.70;69.00
6581;DHT22;3324;50.796;7.228;2022-08-24T11:11:08;32.60;69.20
6581;DHT22;3324;50.796;7.228;2022-08-24T11:13:36;32.50;70.70
6581;DHT22;3324;50.796;7.228;2022-08-24T11:16:03;32.40;69.40
6581;DHT22;3324;50.796;7.228;2022-08-24T11:19:03;32.40;67.90
6581;DHT22;3324;50.796;7.228;2022-08-24T11:21:50;32.40;67.00
6581;DHT22;3324;50.796;7.228;2022-08-24T11:27:40;32.50;68.60
6581;DHT22;3324;50.796;7.228;2022-08-24T11:35:26;32.70;66.00
6581;DHT22;3324;50.796;7.228;2022-08-24T11:37:55;32.80;65.90
6581;DHT22;3324;50.796;7.228;2022-08-24T11:40:26;33.00;66.20
6581;DHT22;3324;50.796;7.228;2022-08-24T11:46:06;33.20;65.20
6581;DHT22;3324;50.796;7.228;2022-08-24T11:48:48;33.50;62.70
6581;DHT22;3324;50.796;7.228;2022-08-24T11:54:41;33.60;61.90
6581;DHT22;3324;50.796;7.228;2022-08-24T11:57:32;33.80;63.00
6581;DHT22;3324;50.796;7.228;2022-08-24T12:00:15;33.90;61.40
6581;DHT22;3324;50.796;7.228;2022-08-24T12:03:00;33.90;60.00
6581;DHT22;3324;50.796;7.228;2022-08-24T12:05:42;34.00;58.70
6581;DHT22;3324;50.796;7.228;2022-08-24T12:14:18;34.20;59.60
6581;DHT22;3324;50.796;7.228;2022-08-24T12:17:00;34.30;58.10
6581;DHT22;3324;50.796;7.228;2022-08-24T12:19:32;34.40;57.40
6581;DHT22;3324;50.796;7.228;2022-08-24T12:22:02;34.40;56.60
6581;DHT22;3324;50.796;7.228;2022-08-24T12:24:38;34.40;55.90
6581;DHT22;3324;50.796;7.228;2022-08-24T12:27:15;34.30;56.20
6581;DHT22;3324;50.796;7.228;2022-08-24T12:30:07;34.40;56.60
6581;DHT22;3324;50.796;7.228;2022-08-24T12:32:40;34.40;56.10
6581;DHT22;3324;50.796;7.228;2022-08-24T12:35:20;34.40;55.10
6581;DHT22;3324;50.796;7.228;2022-08-24T12:40:33;34.40;55.20
6581;DHT22;3324;50.796;7.228;2022-08-24T12:43:04;34.30;55.00
6581;DHT22;3324;50.796;7.228;2022-08-24T12:45:30;34.30;56.70
6581;DHT22;3324;50.796;7.228;2022-08-24T12:53:09;34.10;54.50
6581;DHT22;3324;50.796;7.228;2022-08-24T13:01:17;34.20;54.60
6581;DHT22;3324;50.796;7.228;2022-08-24T13:03:45;34.20;53.20
6581;DHT22;3324;50.796;7.228;2022-08-24T13:06:29;34.20;53.10
6581;DHT22;3324;50.796;7.228;2022-08-24T13:09:28;34.30;53.90
6581;DHT22;3324;50.796;7.228;2022-08-24T13:11:51;34.50;53.20
6581;DHT22;3324;50.796;7.228;2022-08-24T13:14:24;34.60;53.10
6581;DHT22;3324;50.796;7.228;2022-08-24T13:24:54;34.40;52.90
6581;DHT22;3324;50.796;7.228;2022-08-24T13:30:04;34.50;52.20
6581;DHT22;3324;50.796;7.228;2022-08-24T13:32:36;34.70;51.80
6581;DHT22;3324;50.796;7.228;2022-08-24T13:35:33;34.80;50.90
6581;DHT22;3324;50.796;7.228;2022-08-24T13:41:02;34.80;50.50
6581;DHT22;3324;50.796;7.228;2022-08-24T13:49:40;34.50;50.70
6581;DHT22;3324;50.796;7.228;2022-08-24T14:05:50;34.70;50.40
6581;DHT22;3324;50.796;7.228;2022-08-24T14:11:30;34.50;49.50
6581;DHT22;3324;50.796;7.228;2022-08-24T14:14:26;34.50;50.50
6581;DHT22;3324;50.796;7.228;2022-08-24T14:17:15;34.40;50.40
6581;DHT22;3324;50.796;7.228;2022-08-24T14:25:28;34.50;50.60
6581;DHT22;3324;50.796;7.228;2022-08-24T14:49:33;34.50;48.30
6581;DHT22;3324;50.796;7.228;2022-08-24T14:52:31;34.50;48.60
6581;DHT22;3324;50.796;7.228;2022-08-24T15:06:46;34.10;48.30
6581;DHT22;3324;50.796;7.228;2022-08-24T15:09:30;34.10;48.10
6581;DHT22;3324;50.796;7.228;2022-08-24T15:14:54;33.90;48.20
6581;DHT22;3324;50.796;7.228;2022-08-24T15:17:34;34.00;48.60
6581;DHT22;3324;50.796;7.228;2022-08-24T15:20:17;34.00;48.60
6581;DHT22;3324;50.796;7.228;2022-08-24T15:22:56;34.00;47.90
6581;DHT22;3324;50.796;7.228;2022-08-24T15:25:57;34.10;47.50
6581;DHT22;3324;50.796;7.228;2022-08-24T15:28:31;34.00;47.70
6581;DHT22;3324;50.796;7.228;2022-08-24T15:31:02;34.00;48.60
6581;DHT22;3324;50.796;7.228;2022-08-24T15:33:29;34.00;48.70
6581;DHT22;3324;50.796;7.228;2022-08-24T15:36:14;33.90;48.20
6581;DHT22;3324;50.796;7.228;2022-08-24T15:38:42;33.90;47.90
6581;DHT22;3324;50.796;7.228;2022-08-24T15:41:21;34.00;48.40
6581;DHT22;3324;50.796;7.228;2022-08-24T15:49:20;33.90;47.50
6581;DHT22;3324;50.796;7.228;2022-08-24T15:51:52;33.90;47.60
6581;DHT22;3324;50.796;7.228;2022-08-24T15:56:49;33.90;47.50
6581;DHT22;3324;50.796;7.228;2022-08-24T16:10:32;33.40;49.80
6581;DHT22;3324;50.796;7.228;2022-08-24T16:15:46;33.00;50.10
6581;DHT22;3324;50.796;7.228;2022-08-24T16:18:12;32.80;51.00
6581;DHT22;3324;50.796;7.228;2022-08-24T16:20:38;32.70;50.80
6581;DHT22;3324;50.796;7.228;2022-08-24T16:23:11;32.70;51.00
6581;DHT22;3324;50.796;7.228;2022-08-24T16:25:41;32.50;51.40
6581;DHT22;3324;50.796;7.228;2022-08-24T16:30:55;32.40;51.30
6581;DHT22;3324;50.796;7.228;2022-08-24T16:36:04;32.20;51.70
6581;DHT22;3324;50.796;7.228;2022-08-24T16:38:31;32.20;52.00
6581;DHT22;3324;50.796;7.228;2022-08-24T16:41:05;32.10;52.30
6581;DHT22;3324;50.796;7.228;2022-08-24T16:43:34;32.00;52.60
6581;DHT22;3324;50.796;7.228;2022-08-24T16:46:00;31.90;52.80
6581;DHT22;3324;50.796;7.228;2022-08-24T16:48:26;31.90;53.20
6581;DHT22;3324;50.796;7.228;2022-08-24T16:50:52;31.80;53.00
6581;DHT22;3324;50.796;7.228;2022-08-24T16:53:20;31.70;53.20
6581;DHT22;3324;50.796;7.228;2022-08-24T16:55:46;31.60;53.70
6581;DHT22;3324;50.796;7.228;2022-08-24T16:58:13;31.50;54.00
6581;DHT22;3324;50.796;7.228;2022-08-24T17:00:40;31.40;54.20
6581;DHT22;3324;50.796;7.228;2022-08-24T17:03:05;31.30;54.30
6581;DHT22;3324;50.796;7.228;2022-08-24T17:05:31;31.30;54.30
6581;DHT22;3324;50.796;7.228;2022-08-24T17:07:58;31.20;54.30
6581;DHT22;3324;50.796;7.228;2022-08-24T17:10:25;31.10;54.40
6581;DHT22;3324;50.796;7.228;2022-08-24T17:12:52;31.00;54.60
6581;DHT22;3324;50.796;7.228;2022-08-24T17:15:18;31.00;54.90
6581;DHT22;3324;50.796;7.228;2022-08-24T17:17:54;30.90;55.10
6581;DHT22;3324;50.796;7.228;2022-08-24T17:20:21;30.80;55.20
6581;DHT22;3324;50.796;7.228;2022-08-24T17:22:46;30.80;55.60
6581;DHT22;3324;50.796;7.228;2022-08-24T17:25:12;30.70;55.40
6581;DHT22;3324;50.796;7.228;2022-08-24T17:27:37;30.60;55.40
6581;DHT22;3324;50.796;7.228;2022-08-24T17:30:04;30.60;55.70
6581;DHT22;3324;50.796;7.228;2022-08-24T17:32:30;30.60;55.80
6581;DHT22;3324;50.796;7.228;2022-08-24T17:34:56;30.50;56.00
6581;DHT22;3324;50.796;7.228;2022-08-24T17:37:22;30.50;56.10
6581;DHT22;3324;50.796;7.228;2022-08-24T17:39:54;30.40;56.10
6581;DHT22;3324;50.796;7.228;2022-08-24T17:42:20;30.40;56.30
6581;DHT22;3324;50.796;7.228;2022-08-24T17:44:46;30.30;56.40
6581;DHT22;3324;50.796;7.228;2022-08-24T17:47:12;30.30;56.70
6581;DHT22;3324;50.796;7.228;2022-08-24T17:49:38;30.20;57.10
6581;DHT22;3324;50.796;7.228;2022-08-24T17:52:04;30.20;57.50
6581;DHT22;3324;50.796;7.228;2022-08-24T17:54:30;30.10;57.90
6581;DHT22;3324;50.796;7.228;2022-08-24T17:56:56;30.00;58.10
6581;DHT22;3324;50.796;7.228;2022-08-24T17:59:28;30.00;58.40
6581;DHT22;3324;50.796;7.228;2022-08-24T18:01:58;29.90;58.50
6581;DHT22;3324;50.796;7.228;2022-08-24T18:04:26;29.90;58.60
6581;DHT22;3324;50.796;7.228;2022-08-24T18:06:55;29.80;58.50
6581;DHT22;3324;50.796;7.228;2022-08-24T18:09:30;29.80;58.40
6581;DHT22;3324;50.796;7.228;2022-08-24T18:11:57;29.80;58.10
6581;DHT22;3324;50.796;7.228;2022-08-24T18:14:25;29.70;58.00
6581;DHT22;3324;50.796;7.228;2022-08-24T18:16:51;29.70;58.10
6581;DHT22;3324;50.796;7.228;2022-08-24T18:19:19;29.60;58.10
6581;DHT22;3324;50.796;7.228;2022-08-24T18:21:45;29.50;58.40
6581;DHT22;3324;50.796;7.228;2022-08-24T18:24:11;29.50;58.90
6581;DHT22;3324;50.796;7.228;2022-08-24T18:26:37;29.40;59.10
6581;DHT22;3324;50.796;7.228;2022-08-24T18:29:13;29.50;59.70
6581;DHT22;3324;50.796;7.228;2022-08-24T18:31:39;29.40;60.00
6581;DHT22;3324;50.796;7.228;2022-08-24T18:34:07;29.30;60.50
6581;DHT22;3324;50.796;7.228;2022-08-24T18:36:34;29.20;61.00
6581;DHT22;3324;50.796;7.228;2022-08-24T18:39:00;29.10;61.20
6581;DHT22;3324;50.796;7.228;2022-08-24T18:41:31;29.10;61.60
6581;DHT22;3324;50.796;7.228;2022-08-24T18:43:58;29.00;62.80
6581;DHT22;3324;50.796;7.228;2022-08-24T18:46:25;29.00;62.10
6581;DHT22;3324;50.796;7.228;2022-08-24T18:48:52;28.90;62.30
6581;DHT22;3324;50.796;7.228;2022-08-24T18:51:19;28.90;62.40
6581;DHT22;3324;50.796;7.228;2022-08-24T18:53:45;28.80;62.80
6581;DHT22;3324;50.796;7.228;2022-08-24T18:56:12;28.80;63.20
6581;DHT22;3324;50.796;7.228;2022-08-24T18:58:38;28.70;63.50
6581;DHT22;3324;50.796;7.228;2022-08-24T19:01:05;28.60;63.50
6581;DHT22;3324;50.796;7.228;2022-08-24T19:03:31;28.60;63.50
6581;DHT22;3324;50.796;7.228;2022-08-24T19:05:57;28.50;63.70
6581;DHT22;3324;50.796;7.228;2022-08-24T19:08:23;28.40;63.80
6581;DHT22;3324;50.796;7.228;2022-08-24T19:10:49;28.30;63.40
6581;DHT22;3324;50.796;7.228;2022-08-24T19:13:16;28.30;63.20
6581;DHT22;3324;50.796;7.228;2022-08-24T19:15:47;28.30;64.40
6581;DHT22;3324;50.796;7.228;2022-08-24T19:18:15;28.20;64.80
6581;DHT22;3324;50.796;7.228;2022-08-24T19:20:44;28.10;64.60
6581;DHT22;3324;50.796;7.228;2022-08-24T19:23:17;28.00;65.60
6581;DHT22;3324;50.796;7.228;2022-08-24T19:25:44;27.90;66.40
6581;DHT22;3324;50.796;7.228;2022-08-24T19:28:11;27.80;67.10
6581;DHT22;3324;50.796;7.228;2022-08-24T19:30:37;27.80;67.70
6581;DHT22;3324;50.796;7.228;2022-08-24T19:33:05;27.70;67.80
6581;DHT22;3324;50.796;7.228;2022-08-24T19:35:33;27.60;70.00
6581;DHT22;3324;50.796;7.228;2022-08-24T19:37:59;27.60;69.90
6581;DHT22;3324;50.796;7.228;2022-08-24T19:40:25;27.50;70.90
6581;DHT22;3324;50.796;7.228;2022-08-24T19:42:51;27.40;71.60
6581;DHT22;3324;50.796;7.228;2022-08-24T19:45:22;27.30;72.30
6581;DHT22;3324;50.796;7.228;2022-08-24T19:48:06;27.20;73.10
6581;DHT22;3324;50.796;7.228;2022-08-24T19:50:32;27.20;74.50
6581;DHT22;3324;50.796;7.228;2022-08-24T19:52:58;27.00;75.60
6581;DHT22;3324;50.796;7.228;2022-08-24T19:55:26;27.00;76.50
6581;DHT22;3324;50.796;7.228;2022-08-24T19:58:22;26.90;77.20
6581;DHT22;3324;50.796;7.228;2022-08-24T20:01:00;26.80;76.60
6581;DHT22;3324;50.796;7.228;2022-08-24T20:03:26;26.70;77.20
6581;DHT22;3324;50.796;7.228;2022-08-24T20:05:52;26.70;77.30
6581;DHT22;3324;50.796;7.228;2022-08-24T20:08:19;26.60;77.90
6581;DHT22;3324;50.796;7.228;2022-08-24T20:10:45;26.50;78.70
6581;DHT22;3324;50.796;7.228;2022-08-24T20:13:10;26.30;79.10
6581;DHT22;3324;50.796;7.228;2022-08-24T20:15:37;26.20;79.60
6581;DHT22;3324;50.796;7.228;2022-08-24T20:18:03;26.20;80.20
6581;DHT22;3324;50.796;7.228;2022-08-24T20:20:29;26.10;80.80
6581;DHT22;3324;50.796;7.228;2022-08-24T20:22:55;25.90;81.10